Main page
METAR-TAF:

METAR-TAF

Airports :

Amman, Jordan

Amman Civil Airport

latitude: 31-59N, longitude: 035-59E, elevation: 767 m

Current weather observation

The report was made 51 minutes ago, at 08:00 UTC
Wind 8 kt from the North/Northeast
Temperature 27°C
Humidity 10%
Pressure 1014 hPa
Visibility: 5000 m
haze

METAR: OJAM 300800Z 03008KT 5000 HZ NSC 27/M07 Q1014 NOSIG

Time: 11:51 (08:51 UTC)

Forecast

The report was made 4 hours and 1 minutes ago, at 04:50 UTC
Forecast valid from 30 at 06 UTC to 01 at 12 UTC
Wind 12 kt from the West
Visibility: 5000 m
haze
Temporary
from 30 at 10 UTC to 30 at 18 UTC
Visibility: 3000 m
widespread dust

TAF: OJAM 300450Z 3006/0112 26012KT 5000 HZ NSC TEMPO 3010/3018 3000 DU

Weather observations and forecasts of more than 4000 airports (METAR and TAF reports).

The available stations are represented by yellow and red dots on the map.

Hover mouse over dot to see the name of the station.

Then click to see weather observations and forecasts.

To change the map : click on the green buttons with a black cross to zoom in, on the green button with a dash to zoom out, or on the green arrows for adjacent maps.


METAR-TAF: